LFSN METAR and TAF | Updated Today

LFSN METAR

Nancy-Essey Airport

Observation time: 13 min. ago

LFSN 291130Z AUTO 34009KT 280V060 CAVOK 14/02 Q1014

Need help? Read our tutorial on how to read METARs or read the parsed version below.

Nancy-Essey Airport (LFSN) METAR

  • Weather conditions on Sun, 29 May 2022 11:30:00 +0000 (13 min. ago):
  • Present conditions: Dry
  • Clouds: Clear skies
  • Visibility: Greater than 10 km
  • Wind: 340 degrees at 9 knots
  • Temperature: 14 celsius
  • Dew point: 2 celsius
  • Pressure: 1014 millibars
  • Remarks: None


Useful to know...

  • Codes: LFSN/ENC
  • Airport elevation: 751ft
  • Municipality: Nancy/Essey
  • Country: France
  • Continent: Europe

LFSN TAF

Nancy-Essey Airport

TAF not found.